sensor_id;sensor_type;location;lat;lon;timestamp;P1;durP1;ratioP1;P2;durP2;ratioP2
13163;SDS011;6647;53.688;10.746;2023-08-01T00:00:41;3.30;;;2.73;;
13163;SDS011;6647;53.688;10.746;2023-08-01T00:01:41;3.53;;;3.23;;
13163;SDS011;6647;53.688;10.746;2023-08-01T00:02:42;4.23;;;3.13;;
13163;SDS011;6647;53.688;10.746;2023-08-01T00:03:42;3.07;;;2.87;;
13163;SDS011;6647;53.688;10.746;2023-08-01T00:04:42;3.20;;;3.00;;
13163;SDS011;6647;53.688;10.746;2023-08-01T00:05:43;3.13;;;2.93;;
13163;SDS011;6647;53.688;10.746;2023-08-01T00:06:45;2.90;;;2.70;;
13163;SDS011;6647;53.688;10.746;2023-08-01T00:07:46;3.03;;;2.83;;
13163;SDS011;6647;53.688;10.746;2023-08-01T00:08:46;7.00;;;3.30;;
13163;SDS011;6647;53.688;10.746;2023-08-01T00:09:46;3.53;;;3.23;;
13163;SDS011;6647;53.688;10.746;2023-08-01T00:10:47;3.10;;;2.80;;
13163;SDS011;6647;53.688;10.746;2023-08-01T00:11:47;3.23;;;3.03;;
13163;SDS011;6647;53.688;10.746;2023-08-01T00:12:47;3.57;;;3.27;;
13163;SDS011;6647;53.688;10.746;2023-08-01T00:13:48;3.60;;;3.30;;
13163;SDS011;6647;53.688;10.746;2023-08-01T00:14:48;3.57;;;3.30;;
13163;SDS011;6647;53.688;10.746;2023-08-01T00:15:48;5.83;;;2.97;;
13163;SDS011;6647;53.688;10.746;2023-08-01T00:16:52;4.93;;;3.30;;
13163;SDS011;6647;53.688;10.746;2023-08-01T00:17:52;7.55;;;3.35;;
13163;SDS011;6647;53.688;10.746;2023-08-01T00:18:52;5.13;;;3.67;;
13163;SDS011;6647;53.688;10.746;2023-08-01T00:19:53;3.70;;;3.10;;
13163;SDS011;6647;53.688;10.746;2023-08-01T00:20:55;3.10;;;2.85;;
13163;SDS011;6647;53.688;10.746;2023-08-01T00:21:56;3.67;;;3.38;;
13163;SDS011;6647;53.688;10.746;2023-08-01T00:22:56;3.40;;;3.10;;
13163;SDS011;6647;53.688;10.746;2023-08-01T00:23:57;4.57;;;3.40;;
13163;SDS011;6647;53.688;10.746;2023-08-01T00:24:57;3.90;;;2.90;;
13163;SDS011;6647;53.688;10.746;2023-08-01T00:25:58;2.80;;;2.60;;
13163;SDS011;6647;53.688;10.746;2023-08-01T00:26:58;4.27;;;3.13;;
13163;SDS011;6647;53.688;10.746;2023-08-01T00:27:59;4.70;;;3.40;;
13163;SDS011;6647;53.688;10.746;2023-08-01T00:28:59;3.83;;;2.97;;
13163;SDS011;6647;53.688;10.746;2023-08-01T00:29:59;3.50;;;3.20;;
13163;SDS011;6647;53.688;10.746;2023-08-01T00:31:03;3.73;;;3.30;;
13163;SDS011;6647;53.688;10.746;2023-08-01T00:32:07;3.10;;;2.90;;
13163;SDS011;6647;53.688;10.746;2023-08-01T00:33:07;3.67;;;3.30;;
13163;SDS011;6647;53.688;10.746;2023-08-01T00:34:07;4.73;;;3.40;;
13163;SDS011;6647;53.688;10.746;2023-08-01T00:35:09;3.60;;;3.05;;
13163;SDS011;6647;53.688;10.746;2023-08-01T00:36:09;3.17;;;2.97;;
13163;SDS011;6647;53.688;10.746;2023-08-01T00:37:12;3.50;;;3.20;;
13163;SDS011;6647;53.688;10.746;2023-08-01T00:38:12;3.00;;;2.70;;
13163;SDS011;6647;53.688;10.746;2023-08-01T00:39:12;3.13;;;2.83;;
13163;SDS011;6647;53.688;10.746;2023-08-01T00:40:13;2.87;;;2.67;;
13163;SDS011;6647;53.688;10.746;2023-08-01T00:41:13;3.10;;;2.77;;
13163;SDS011;6647;53.688;10.746;2023-08-01T00:42:14;3.10;;;2.80;;
13163;SDS011;6647;53.688;10.746;2023-08-01T00:43:15;5.47;;;3.30;;
13163;SDS011;6647;53.688;10.746;2023-08-01T00:44:15;3.77;;;2.83;;
13163;SDS011;6647;53.688;10.746;2023-08-01T00:45:16;3.20;;;2.90;;
13163;SDS011;6647;53.688;10.746;2023-08-01T00:46:16;4.40;;;2.40;;
13163;SDS011;6647;53.688;10.746;2023-08-01T00:47:16;2.60;;;2.40;;
13163;SDS011;6647;53.688;10.746;2023-08-01T00:48:17;3.30;;;2.80;;
13163;SDS011;6647;53.688;10.746;2023-08-01T00:49:18;3.20;;;2.90;;
13163;SDS011;6647;53.688;10.746;2023-08-01T00:50:19;5.90;;;2.70;;
13163;SDS011;6647;53.688;10.746;2023-08-01T00:51:20;4.20;;;2.20;;
13163;SDS011;6647;53.688;10.746;2023-08-01T00:52:20;2.83;;;2.63;;
13163;SDS011;6647;53.688;10.746;2023-08-01T00:53:21;2.40;;;2.20;;
13163;SDS011;6647;53.688;10.746;2023-08-01T00:54:22;3.23;;;2.10;;
13163;SDS011;6647;53.688;10.746;2023-08-01T00:55:22;2.60;;;2.40;;
13163;SDS011;6647;53.688;10.746;2023-08-01T00:56:23;2.70;;;2.50;;
13163;SDS011;6647;53.688;10.746;2023-08-01T00:57:23;2.70;;;1.90;;
13163;SDS011;6647;53.688;10.746;2023-08-01T00:58:24;2.30;;;2.10;;
13163;SDS011;6647;53.688;10.746;2023-08-01T00:59:25;2.50;;;2.30;;
13163;SDS011;6647;53.688;10.746;2023-08-01T01:00:25;3.97;;;2.00;;
13163;SDS011;6647;53.688;10.746;2023-08-01T01:01:25;2.67;;;2.47;;
13163;SDS011;6647;53.688;10.746;2023-08-01T01:02:25;2.03;;;1.93;;
13163;SDS011;6647;53.688;10.746;2023-08-01T01:03:26;2.33;;;2.10;;
13163;SDS011;6647;53.688;10.746;2023-08-01T01:04:26;2.00;;;1.90;;
13163;SDS011;6647;53.688;10.746;2023-08-01T01:05:27;5.97;;;2.03;;
13163;SDS011;6647;53.688;10.746;2023-08-01T01:06:32;4.88;;;1.95;;
13163;SDS011;6647;53.688;10.746;2023-08-01T01:07:36;2.13;;;1.92;;
13163;SDS011;6647;53.688;10.746;2023-08-01T01:08:37;2.77;;;2.43;;
13163;SDS011;6647;53.688;10.746;2023-08-01T01:09:37;2.13;;;1.93;;
13163;SDS011;6647;53.688;10.746;2023-08-01T01:10:37;2.13;;;2.03;;
13163;SDS011;6647;53.688;10.746;2023-08-01T01:11:38;2.67;;;2.47;;
13163;SDS011;6647;53.688;10.746;2023-08-01T01:12:38;1.83;;;1.73;;
13163;SDS011;6647;53.688;10.746;2023-08-01T01:13:38;3.93;;;1.90;;
13163;SDS011;6647;53.688;10.746;2023-08-01T01:14:39;3.20;;;2.10;;
13163;SDS011;6647;53.688;10.746;2023-08-01T01:15:39;1.97;;;1.87;;
13163;SDS011;6647;53.688;10.746;2023-08-01T01:16:39;3.10;;;2.03;;
13163;SDS011;6647;53.688;10.746;2023-08-01T01:17:40;4.17;;;2.13;;
13163;SDS011;6647;53.688;10.746;2023-08-01T01:18:40;1.90;;;1.80;;
13163;SDS011;6647;53.688;10.746;2023-08-01T01:19:41;2.20;;;2.10;;
13163;SDS011;6647;53.688;10.746;2023-08-01T01:20:41;2.50;;;2.00;;
13163;SDS011;6647;53.688;10.746;2023-08-01T01:21:41;2.50;;;1.90;;
13163;SDS011;6647;53.688;10.746;2023-08-01T01:22:43;1.80;;;1.70;;
13163;SDS011;6647;53.688;10.746;2023-08-01T01:23:43;2.80;;;1.60;;
13163;SDS011;6647;53.688;10.746;2023-08-01T01:24:45;1.90;;;1.80;;
13163;SDS011;6647;53.688;10.746;2023-08-01T01:25:46;1.60;;;1.50;;
13163;SDS011;6647;53.688;10.746;2023-08-01T01:26:47;2.50;;;2.20;;
13163;SDS011;6647;53.688;10.746;2023-08-01T01:27:49;4.13;;;1.73;;
13163;SDS011;6647;53.688;10.746;2023-08-01T01:28:49;1.88;;;1.77;;
13163;SDS011;6647;53.688;10.746;2023-08-01T01:29:50;2.17;;;1.80;;
13163;SDS011;6647;53.688;10.746;2023-08-01T01:30:51;1.93;;;1.83;;
13163;SDS011;6647;53.688;10.746;2023-08-01T01:31:53;2.10;;;1.60;;
13163;SDS011;6647;53.688;10.746;2023-08-01T01:32:53;1.97;;;1.70;;
13163;SDS011;6647;53.688;10.746;2023-08-01T01:33:54;2.27;;;1.90;;
13163;SDS011;6647;53.688;10.746;2023-08-01T01:34:55;2.27;;;1.90;;
13163;SDS011;6647;53.688;10.746;2023-08-01T01:35:56;2.13;;;1.80;;
13163;SDS011;6647;53.688;10.746;2023-08-01T01:36:56;1.40;;;1.30;;
13163;SDS011;6647;53.688;10.746;2023-08-01T01:37:57;4.00;;;2.00;;
13163;SDS011;6647;53.688;10.746;2023-08-01T01:38:58;2.05;;;1.85;;
13163;SDS011;6647;53.688;10.746;2023-08-01T01:39:58;1.53;;;1.43;;
13163;SDS011;6647;53.688;10.746;2023-08-01T01:40:59;5.87;;;1.90;;
13163;SDS011;6647;53.688;10.746;2023-08-01T01:41:59;3.23;;;1.80;;
13163;SDS011;6647;53.688;10.746;2023-08-01T01:43:00;2.23;;;2.13;;
13163;SDS011;6647;53.688;10.746;2023-08-01T01:44:00;1.90;;;1.80;;
13163;SDS011;6647;53.688;10.746;2023-08-01T01:45:01;1.93;;;1.40;;
13163;SDS011;6647;53.688;10.746;2023-08-01T01:46:02;10.60;;;2.30;;
13163;SDS011;6647;53.688;10.746;2023-08-01T01:47:02;1.90;;;1.80;;
13163;SDS011;6647;53.688;10.746;2023-08-01T01:48:02;1.80;;;1.70;;
13163;SDS011;6647;53.688;10.746;2023-08-01T01:49:03;1.90;;;1.80;;
13163;SDS011;6647;53.688;10.746;2023-08-01T01:50:03;2.20;;;2.10;;
13163;SDS011;6647;53.688;10.746;2023-08-01T01:51:05;2.00;;;1.80;;
13163;SDS011;6647;53.688;10.746;2023-08-01T01:52:06;3.50;;;2.00;;
13163;SDS011;6647;53.688;10.746;2023-08-01T01:53:06;1.70;;;1.60;;
13163;SDS011;6647;53.688;10.746;2023-08-01T01:54:06;2.10;;;1.97;;
13163;SDS011;6647;53.688;10.746;2023-08-01T01:55:07;2.10;;;1.90;;
13163;SDS011;6647;53.688;10.746;2023-08-01T01:56:07;1.93;;;1.83;;
13163;SDS011;6647;53.688;10.746;2023-08-01T01:57:08;2.93;;;2.37;;
13163;SDS011;6647;53.688;10.746;2023-08-01T01:58:08;3.77;;;1.80;;
13163;SDS011;6647;53.688;10.746;2023-08-01T01:59:08;1.97;;;1.80;;
13163;SDS011;6647;53.688;10.746;2023-08-01T02:00:10;2.30;;;2.10;;
13163;SDS011;6647;53.688;10.746;2023-08-01T02:01:11;2.38;;;2.15;;
13163;SDS011;6647;53.688;10.746;2023-08-01T02:02:11;2.13;;;1.90;;
13163;SDS011;6647;53.688;10.746;2023-08-01T02:03:12;1.90;;;1.80;;
13163;SDS011;6647;53.688;10.746;2023-08-01T02:04:13;2.07;;;1.97;;
13163;SDS011;6647;53.688;10.746;2023-08-01T02:05:13;4.23;;;2.00;;
13163;SDS011;6647;53.688;10.746;2023-08-01T02:06:14;4.47;;;2.28;;
13163;SDS011;6647;53.688;10.746;2023-08-01T02:07:14;3.90;;;1.93;;
13163;SDS011;6647;53.688;10.746;2023-08-01T02:08:14;1.80;;;1.70;;
13163;SDS011;6647;53.688;10.746;2023-08-01T02:09:15;1.83;;;1.73;;
13163;SDS011;6647;53.688;10.746;2023-08-01T02:10:15;2.10;;;2.00;;
13163;SDS011;6647;53.688;10.746;2023-08-01T02:11:15;2.40;;;2.00;;
13163;SDS011;6647;53.688;10.746;2023-08-01T02:12:16;2.50;;;2.30;;
13163;SDS011;6647;53.688;10.746;2023-08-01T02:13:16;1.90;;;1.80;;
13163;SDS011;6647;53.688;10.746;2023-08-01T02:14:16;1.80;;;1.70;;
13163;SDS011;6647;53.688;10.746;2023-08-01T02:15:17;1.83;;;1.70;;
13163;SDS011;6647;53.688;10.746;2023-08-01T02:16:17;10.40;;;1.80;;
13163;SDS011;6647;53.688;10.746;2023-08-01T02:17:17;6.67;;;1.93;;
13163;SDS011;6647;53.688;10.746;2023-08-01T02:18:17;4.27;;;1.83;;
13163;SDS011;6647;53.688;10.746;2023-08-01T02:19:18;2.50;;;2.30;;
13163;SDS011;6647;53.688;10.746;2023-08-01T02:20:18;3.27;;;2.00;;
13163;SDS011;6647;53.688;10.746;2023-08-01T02:21:18;2.60;;;2.40;;
13163;SDS011;6647;53.688;10.746;2023-08-01T02:22:19;6.83;;;2.10;;
13163;SDS011;6647;53.688;10.746;2023-08-01T02:23:19;2.83;;;2.10;;
13163;SDS011;6647;53.688;10.746;2023-08-01T02:24:19;1.90;;;1.77;;
13163;SDS011;6647;53.688;10.746;2023-08-01T02:25:20;8.43;;;2.30;;
13163;SDS011;6647;53.688;10.746;2023-08-01T02:26:20;2.67;;;2.00;;
13163;SDS011;6647;53.688;10.746;2023-08-01T02:27:24;2.00;;;1.90;;
13163;SDS011;6647;53.688;10.746;2023-08-01T02:28:24;2.80;;;2.47;;
13163;SDS011;6647;53.688;10.746;2023-08-01T02:29:24;5.23;;;2.57;;
13163;SDS011;6647;53.688;10.746;2023-08-01T02:30:25;2.87;;;2.67;;
13163;SDS011;6647;53.688;10.746;2023-08-01T02:31:26;2.93;;;2.50;;
13163;SDS011;6647;53.688;10.746;2023-08-01T02:32:26;3.47;;;2.47;;
13163;SDS011;6647;53.688;10.746;2023-08-01T02:33:26;2.50;;;2.30;;
13163;SDS011;6647;53.688;10.746;2023-08-01T02:34:27;2.50;;;2.30;;
13163;SDS011;6647;53.688;10.746;2023-08-01T02:35:27;3.20;;;2.90;;
13163;SDS011;6647;53.688;10.746;2023-08-01T02:36:28;2.85;;;2.65;;
13163;SDS011;6647;53.688;10.746;2023-08-01T02:37:28;2.90;;;2.70;;
13163;SDS011;6647;53.688;10.746;2023-08-01T02:38:29;2.60;;;2.40;;
13163;SDS011;6647;53.688;10.746;2023-08-01T02:39:30;4.05;;;2.50;;
13163;SDS011;6647;53.688;10.746;2023-08-01T02:40:30;2.63;;;2.30;;
13163;SDS011;6647;53.688;10.746;2023-08-01T02:41:31;4.33;;;2.90;;
13163;SDS011;6647;53.688;10.746;2023-08-01T02:42:31;2.53;;;2.33;;
13163;SDS011;6647;53.688;10.746;2023-08-01T02:43:31;3.93;;;2.47;;
13163;SDS011;6647;53.688;10.746;2023-08-01T02:44:31;3.50;;;2.97;;
13163;SDS011;6647;53.688;10.746;2023-08-01T02:45:32;5.53;;;2.47;;
13163;SDS011;6647;53.688;10.746;2023-08-01T02:46:32;6.13;;;2.60;;
13163;SDS011;6647;53.688;10.746;2023-08-01T02:47:32;2.43;;;2.23;;
13163;SDS011;6647;53.688;10.746;2023-08-01T02:48:33;4.47;;;3.13;;
13163;SDS011;6647;53.688;10.746;2023-08-01T02:49:35;6.80;;;3.50;;
13163;SDS011;6647;53.688;10.746;2023-08-01T02:50:35;3.20;;;2.93;;
13163;SDS011;6647;53.688;10.746;2023-08-01T02:51:35;3.30;;;3.00;;
13163;SDS011;6647;53.688;10.746;2023-08-01T02:52:36;3.80;;;3.30;;
13163;SDS011;6647;53.688;10.746;2023-08-01T02:53:37;3.95;;;3.63;;
13163;SDS011;6647;53.688;10.746;2023-08-01T02:54:41;4.25;;;3.33;;
13163;SDS011;6647;53.688;10.746;2023-08-01T02:55:41;5.13;;;3.30;;
13163;SDS011;6647;53.688;10.746;2023-08-01T02:56:41;3.77;;;3.40;;
13163;SDS011;6647;53.688;10.746;2023-08-01T02:57:42;7.00;;;3.90;;
13163;SDS011;6647;53.688;10.746;2023-08-01T02:58:42;3.90;;;3.60;;
13163;SDS011;6647;53.688;10.746;2023-08-01T02:59:43;4.70;;;4.30;;
13163;SDS011;6647;53.688;10.746;2023-08-01T03:00:43;5.33;;;4.17;;
13163;SDS011;6647;53.688;10.746;2023-08-01T03:01:43;6.00;;;4.10;;
13163;SDS011;6647;53.688;10.746;2023-08-01T03:02:44;3.40;;;3.10;;
13163;SDS011;6647;53.688;10.746;2023-08-01T03:03:44;4.73;;;4.33;;
13163;SDS011;6647;53.688;10.746;2023-08-01T03:04:44;6.50;;;3.33;;
13163;SDS011;6647;53.688;10.746;2023-08-01T03:05:45;6.67;;;4.50;;
13163;SDS011;6647;53.688;10.746;2023-08-01T03:06:45;4.80;;;4.27;;
13163;SDS011;6647;53.688;10.746;2023-08-01T03:07:45;4.20;;;3.80;;
13163;SDS011;6647;53.688;10.746;2023-08-01T03:08:46;4.40;;;3.97;;
13163;SDS011;6647;53.688;10.746;2023-08-01T03:09:46;5.53;;;4.93;;
13163;SDS011;6647;53.688;10.746;2023-08-01T03:10:46;4.87;;;4.50;;
13163;SDS011;6647;53.688;10.746;2023-08-01T03:11:47;5.70;;;4.43;;
13163;SDS011;6647;53.688;10.746;2023-08-01T03:12:47;4.53;;;4.00;;
13163;SDS011;6647;53.688;10.746;2023-08-01T03:13:47;5.07;;;4.50;;
13163;SDS011;6647;53.688;10.746;2023-08-01T03:14:48;4.80;;;4.30;;
13163;SDS011;6647;53.688;10.746;2023-08-01T03:15:48;7.27;;;4.87;;
13163;SDS011;6647;53.688;10.746;2023-08-01T03:16:48;4.40;;;4.00;;
13163;SDS011;6647;53.688;10.746;2023-08-01T03:17:49;9.43;;;4.90;;
13163;SDS011;6647;53.688;10.746;2023-08-01T03:18:49;6.00;;;4.90;;
13163;SDS011;6647;53.688;10.746;2023-08-01T03:19:49;6.33;;;5.73;;
13163;SDS011;6647;53.688;10.746;2023-08-01T03:20:49;5.33;;;4.83;;
13163;SDS011;6647;53.688;10.746;2023-08-01T03:21:50;6.53;;;4.53;;
13163;SDS011;6647;53.688;10.746;2023-08-01T03:22:50;10.03;;;4.73;;
13163;SDS011;6647;53.688;10.746;2023-08-01T03:23:51;4.67;;;4.20;;
13163;SDS011;6647;53.688;10.746;2023-08-01T03:24:51;5.90;;;4.43;;
13163;SDS011;6647;53.688;10.746;2023-08-01T03:25:51;8.50;;;4.83;;
13163;SDS011;6647;53.688;10.746;2023-08-01T03:26:52;6.00;;;5.40;;
13163;SDS011;6647;53.688;10.746;2023-08-01T03:27:52;11.13;;;5.97;;
13163;SDS011;6647;53.688;10.746;2023-08-01T03:28:54;6.00;;;5.18;;
13163;SDS011;6647;53.688;10.746;2023-08-01T03:29:55;7.45;;;5.63;;
13163;SDS011;6647;53.688;10.746;2023-08-01T03:30:55;6.00;;;5.37;;
13163;SDS011;6647;53.688;10.746;2023-08-01T03:31:56;6.97;;;6.27;;
13163;SDS011;6647;53.688;10.746;2023-08-01T03:32:56;6.33;;;5.63;;
13163;SDS011;6647;53.688;10.746;2023-08-01T03:33:56;5.37;;;4.90;;
13163;SDS011;6647;53.688;10.746;2023-08-01T03:34:58;5.40;;;4.90;;
13163;SDS011;6647;53.688;10.746;2023-08-01T03:35:58;9.97;;;6.23;;
13163;SDS011;6647;53.688;10.746;2023-08-01T03:36:58;6.30;;;5.70;;
13163;SDS011;6647;53.688;10.746;2023-08-01T03:37:59;6.97;;;5.20;;
13163;SDS011;6647;53.688;10.746;2023-08-01T03:38:59;5.90;;;5.30;;
13163;SDS011;6647;53.688;10.746;2023-08-01T03:40:00;7.60;;;4.80;;
13163;SDS011;6647;53.688;10.746;2023-08-01T03:41:00;5.87;;;5.37;;
13163;SDS011;6647;53.688;10.746;2023-08-01T03:42:01;7.30;;;5.63;;
13163;SDS011;6647;53.688;10.746;2023-08-01T03:43:02;8.75;;;5.38;;
13163;SDS011;6647;53.688;10.746;2023-08-01T03:44:02;6.03;;;5.33;;
13163;SDS011;6647;53.688;10.746;2023-08-01T03:45:04;8.23;;;5.95;;
13163;SDS011;6647;53.688;10.746;2023-08-01T03:46:05;8.13;;;5.35;;
13163;SDS011;6647;53.688;10.746;2023-08-01T03:47:06;6.00;;;5.50;;
13163;SDS011;6647;53.688;10.746;2023-08-01T03:48:07;6.93;;;5.97;;
13163;SDS011;6647;53.688;10.746;2023-08-01T03:49:08;6.63;;;5.93;;
13163;SDS011;6647;53.688;10.746;2023-08-01T03:50:09;6.18;;;5.57;;
13163;SDS011;6647;53.688;10.746;2023-08-01T03:51:09;8.23;;;5.03;;
13163;SDS011;6647;53.688;10.746;2023-08-01T03:52:10;6.50;;;5.80;;
13163;SDS011;6647;53.688;10.746;2023-08-01T03:53:10;7.97;;;4.97;;
13163;SDS011;6647;53.688;10.746;2023-08-01T03:54:10;6.30;;;5.70;;
13163;SDS011;6647;53.688;10.746;2023-08-01T03:55:11;5.40;;;4.90;;
13163;SDS011;6647;53.688;10.746;2023-08-01T03:56:11;5.67;;;5.17;;
13163;SDS011;6647;53.688;10.746;2023-08-01T03:57:12;6.20;;;5.60;;
13163;SDS011;6647;53.688;10.746;2023-08-01T03:58:12;10.80;;;5.00;;
13163;SDS011;6647;53.688;10.746;2023-08-01T03:59:15;6.50;;;5.50;;
13163;SDS011;6647;53.688;10.746;2023-08-01T04:00:16;6.90;;;6.15;;
13163;SDS011;6647;53.688;10.746;2023-08-01T04:01:18;8.52;;;5.80;;
13163;SDS011;6647;53.688;10.746;2023-08-01T04:02:18;7.63;;;6.10;;
13163;SDS011;6647;53.688;10.746;2023-08-01T04:03:19;6.50;;;5.80;;
13163;SDS011;6647;53.688;10.746;2023-08-01T04:04:19;6.40;;;5.80;;
13163;SDS011;6647;53.688;10.746;2023-08-01T04:05:20;6.30;;;5.40;;
13163;SDS011;6647;53.688;10.746;2023-08-01T04:06:20;9.53;;;5.43;;
13163;SDS011;6647;53.688;10.746;2023-08-01T04:07:21;7.87;;;5.70;;
13163;SDS011;6647;53.688;10.746;2023-08-01T04:08:21;8.53;;;5.60;;
13163;SDS011;6647;53.688;10.746;2023-08-01T04:09:21;8.73;;;5.87;;
13163;SDS011;6647;53.688;10.746;2023-08-01T04:10:22;8.13;;;5.70;;
13163;SDS011;6647;53.688;10.746;2023-08-01T04:11:23;5.40;;;4.90;;
13163;SDS011;6647;53.688;10.746;2023-08-01T04:12:23;6.00;;;5.40;;
13163;SDS011;6647;53.688;10.746;2023-08-01T04:13:23;7.40;;;6.00;;
13163;SDS011;6647;53.688;10.746;2023-08-01T04:14:24;6.47;;;5.63;;
13163;SDS011;6647;53.688;10.746;2023-08-01T04:15:24;6.53;;;5.87;;
13163;SDS011;6647;53.688;10.746;2023-08-01T04:16:24;7.50;;;6.13;;
13163;SDS011;6647;53.688;10.746;2023-08-01T04:17:25;6.13;;;5.53;;
13163;SDS011;6647;53.688;10.746;2023-08-01T04:18:25;6.73;;;5.50;;
13163;SDS011;6647;53.688;10.746;2023-08-01T04:19:26;6.65;;;6.00;;
13163;SDS011;6647;53.688;10.746;2023-08-01T04:20:28;7.07;;;6.30;;
13163;SDS011;6647;53.688;10.746;2023-08-01T04:21:28;7.90;;;6.30;;
13163;SDS011;6647;53.688;10.746;2023-08-01T04:22:29;9.43;;;6.80;;
13163;SDS011;6647;53.688;10.746;2023-08-01T04:23:29;7.63;;;6.47;;
13163;SDS011;6647;53.688;10.746;2023-08-01T04:24:29;7.50;;;6.47;;
13163;SDS011;6647;53.688;10.746;2023-08-01T04:25:31;11.10;;;6.45;;
13163;SDS011;6647;53.688;10.746;2023-08-01T04:26:31;6.77;;;5.90;;
13163;SDS011;6647;53.688;10.746;2023-08-01T04:27:32;7.37;;;5.90;;
13163;SDS011;6647;53.688;10.746;2023-08-01T04:28:33;7.47;;;6.67;;
13163;SDS011;6647;53.688;10.746;2023-08-01T04:29:34;11.02;;;6.45;;
13163;SDS011;6647;53.688;10.746;2023-08-01T04:30:35;10.80;;;7.05;;
13163;SDS011;6647;53.688;10.746;2023-08-01T04:31:38;7.20;;;6.60;;
13163;SDS011;6647;53.688;10.746;2023-08-01T04:32:39;8.37;;;6.43;;
13163;SDS011;6647;53.688;10.746;2023-08-01T04:33:39;6.70;;;6.10;;
13163;SDS011;6647;53.688;10.746;2023-08-01T04:34:39;8.37;;;6.83;;
13163;SDS011;6647;53.688;10.746;2023-08-01T04:35:40;6.93;;;6.30;;
13163;SDS011;6647;53.688;10.746;2023-08-01T04:36:40;7.83;;;6.50;;
13163;SDS011;6647;53.688;10.746;2023-08-01T04:37:40;10.43;;;6.73;;
13163;SDS011;6647;53.688;10.746;2023-08-01T04:38:40;12.17;;;6.40;;
13163;SDS011;6647;53.688;10.746;2023-08-01T04:39:41;8.50;;;6.70;;
13163;SDS011;6647;53.688;10.746;2023-08-01T04:40:41;6.97;;;6.17;;
13163;SDS011;6647;53.688;10.746;2023-08-01T04:41:41;7.40;;;6.70;;
13163;SDS011;6647;53.688;10.746;2023-08-01T04:42:42;8.03;;;6.50;;
13163;SDS011;6647;53.688;10.746;2023-08-01T04:43:42;12.03;;;6.77;;
13163;SDS011;6647;53.688;10.746;2023-08-01T04:44:42;10.00;;;7.27;;
13163;SDS011;6647;53.688;10.746;2023-08-01T04:45:43;11.63;;;7.10;;
13163;SDS011;6647;53.688;10.746;2023-08-01T04:46:43;8.13;;;6.83;;
13163;SDS011;6647;53.688;10.746;2023-08-01T04:47:43;9.63;;;6.90;;
13163;SDS011;6647;53.688;10.746;2023-08-01T04:48:44;7.67;;;6.97;;
13163;SDS011;6647;53.688;10.746;2023-08-01T04:49:44;8.60;;;6.90;;
13163;SDS011;6647;53.688;10.746;2023-08-01T04:50:44;8.47;;;7.57;;
13163;SDS011;6647;53.688;10.746;2023-08-01T04:51:45;9.63;;;7.70;;
13163;SDS011;6647;53.688;10.746;2023-08-01T04:52:45;10.70;;;7.63;;
13163;SDS011;6647;53.688;10.746;2023-08-01T04:53:46;8.90;;;7.40;;
13163;SDS011;6647;53.688;10.746;2023-08-01T04:54:46;11.00;;;6.67;;
13163;SDS011;6647;53.688;10.746;2023-08-01T04:55:47;10.33;;;7.73;;
13163;SDS011;6647;53.688;10.746;2023-08-01T04:56:47;10.53;;;7.63;;
13163;SDS011;6647;53.688;10.746;2023-08-01T04:57:47;8.43;;;7.50;;
13163;SDS011;6647;53.688;10.746;2023-08-01T04:58:48;10.73;;;8.03;;
13163;SDS011;6647;53.688;10.746;2023-08-01T04:59:48;10.80;;;7.97;;
13163;SDS011;6647;53.688;10.746;2023-08-01T05:00:48;10.90;;;6.70;;
13163;SDS011;6647;53.688;10.746;2023-08-01T05:01:49;12.33;;;7.70;;
13163;SDS011;6647;53.688;10.746;2023-08-01T05:02:49;13.10;;;8.33;;
13163;SDS011;6647;53.688;10.746;2023-08-01T05:03:49;7.90;;;7.10;;
13163;SDS011;6647;53.688;10.746;2023-08-01T05:04:50;9.83;;;8.00;;
13163;SDS011;6647;53.688;10.746;2023-08-01T05:05:50;9.30;;;7.40;;
13163;SDS011;6647;53.688;10.746;2023-08-01T05:06:51;10.38;;;8.80;;
13163;SDS011;6647;53.688;10.746;2023-08-01T05:07:51;12.40;;;8.20;;
13163;SDS011;6647;53.688;10.746;2023-08-01T05:08:52;13.27;;;8.53;;
13163;SDS011;6647;53.688;10.746;2023-08-01T05:09:52;11.10;;;8.10;;
13163;SDS011;6647;53.688;10.746;2023-08-01T05:10:52;9.20;;;8.27;;
13163;SDS011;6647;53.688;10.746;2023-08-01T05:11:53;10.43;;;7.67;;
13163;SDS011;6647;53.688;10.746;2023-08-01T05:12:53;9.17;;;8.20;;
13163;SDS011;6647;53.688;10.746;2023-08-01T05:13:53;13.50;;;8.27;;
13163;SDS011;6647;53.688;10.746;2023-08-01T05:14:54;8.20;;;7.30;;
13163;SDS011;6647;53.688;10.746;2023-08-01T05:15:54;8.03;;;7.00;;
13163;SDS011;6647;53.688;10.746;2023-08-01T05:16:55;8.70;;;7.80;;
13163;SDS011;6647;53.688;10.746;2023-08-01T05:17:55;8.57;;;7.80;;
13163;SDS011;6647;53.688;10.746;2023-08-01T05:18:55;8.57;;;7.30;;
13163;SDS011;6647;53.688;10.746;2023-08-01T05:19:56;8.00;;;7.20;;
13163;SDS011;6647;53.688;10.746;2023-08-01T05:20:56;7.67;;;6.97;;
13163;SDS011;6647;53.688;10.746;2023-08-01T05:21:57;10.10;;;8.48;;
13163;SDS011;6647;53.688;10.746;2023-08-01T05:22:57;8.30;;;7.60;;
13163;SDS011;6647;53.688;10.746;2023-08-01T05:23:59;9.80;;;7.82;;
13163;SDS011;6647;53.688;10.746;2023-08-01T05:24:59;8.27;;;7.40;;
13163;SDS011;6647;53.688;10.746;2023-08-01T05:25:59;9.43;;;7.83;;
13163;SDS011;6647;53.688;10.746;2023-08-01T05:26:59;9.30;;;8.30;;
13163;SDS011;6647;53.688;10.746;2023-08-01T05:28:00;11.60;;;7.37;;
13163;SDS011;6647;53.688;10.746;2023-08-01T05:29:05;11.75;;;7.72;;
13163;SDS011;6647;53.688;10.746;2023-08-01T05:30:05;9.87;;;7.87;;
13163;SDS011;6647;53.688;10.746;2023-08-01T05:31:06;10.87;;;7.77;;
13163;SDS011;6647;53.688;10.746;2023-08-01T05:32:06;9.23;;;7.70;;
13163;SDS011;6647;53.688;10.746;2023-08-01T05:33:07;9.90;;;8.13;;
13163;SDS011;6647;53.688;10.746;2023-08-01T05:34:07;8.43;;;7.20;;
13163;SDS011;6647;53.688;10.746;2023-08-01T05:35:09;8.52;;;7.43;;
13163;SDS011;6647;53.688;10.746;2023-08-01T05:36:09;8.20;;;7.40;;
13163;SDS011;6647;53.688;10.746;2023-08-01T05:37:10;24.43;;;8.53;;
13163;SDS011;6647;53.688;10.746;2023-08-01T05:38:10;8.63;;;7.87;;
13163;SDS011;6647;53.688;10.746;2023-08-01T05:39:11;8.20;;;7.33;;
13163;SDS011;6647;53.688;10.746;2023-08-01T05:40:11;7.83;;;6.97;;
13163;SDS011;6647;53.688;10.746;2023-08-01T05:41:12;11.30;;;8.30;;
13163;SDS011;6647;53.688;10.746;2023-08-01T05:42:12;11.90;;;8.30;;
13163;SDS011;6647;53.688;10.746;2023-08-01T05:43:12;9.90;;;8.30;;
13163;SDS011;6647;53.688;10.746;2023-08-01T05:44:13;11.10;;;7.80;;
13163;SDS011;6647;53.688;10.746;2023-08-01T05:45:13;8.90;;;7.73;;
13163;SDS011;6647;53.688;10.746;2023-08-01T05:46:13;13.57;;;8.20;;
13163;SDS011;6647;53.688;10.746;2023-08-01T05:47:14;10.03;;;8.17;;
13163;SDS011;6647;53.688;10.746;2023-08-01T05:48:14;9.27;;;8.27;;
13163;SDS011;6647;53.688;10.746;2023-08-01T05:49:14;12.90;;;7.90;;
13163;SDS011;6647;53.688;10.746;2023-08-01T05:50:14;9.67;;;8.47;;
13163;SDS011;6647;53.688;10.746;2023-08-01T05:51:15;10.00;;;8.10;;
13163;SDS011;6647;53.688;10.746;2023-08-01T05:52:15;10.77;;;7.90;;
13163;SDS011;6647;53.688;10.746;2023-08-01T05:53:16;9.60;;;8.60;;
13163;SDS011;6647;53.688;10.746;2023-08-01T05:54:16;13.03;;;7.80;;
13163;SDS011;6647;53.688;10.746;2023-08-01T05:55:16;10.73;;;8.50;;
13163;SDS011;6647;53.688;10.746;2023-08-01T05:56:17;12.80;;;9.17;;
13163;SDS011;6647;53.688;10.746;2023-08-01T05:57:17;13.00;;;8.50;;
13163;SDS011;6647;53.688;10.746;2023-08-01T05:58:17;8.23;;;7.40;;
13163;SDS011;6647;53.688;10.746;2023-08-01T05:59:18;9.37;;;7.93;;
13163;SDS011;6647;53.688;10.746;2023-08-01T06:00:19;11.53;;;7.90;;
13163;SDS011;6647;53.688;10.746;2023-08-01T06:01:21;10.75;;;9.13;;
13163;SDS011;6647;53.688;10.746;2023-08-01T06:02:22;10.40;;;7.63;;
13163;SDS011;6647;53.688;10.746;2023-08-01T06:03:22;14.27;;;8.27;;
13163;SDS011;6647;53.688;10.746;2023-08-01T06:04:22;12.43;;;8.33;;